createdAt,value
2017-11-27T00:00:42.306Z,3.70
2017-11-27T00:03:09.765Z,3.60
2017-11-27T00:05:37.196Z,3.50
2017-11-27T00:08:04.651Z,3.50
2017-11-27T00:10:32.858Z,3.70
2017-11-27T00:13:00.314Z,3.60
2017-11-27T00:15:27.864Z,3.60
2017-11-27T00:17:55.313Z,3.60
2017-11-27T00:20:22.746Z,3.60
2017-11-27T00:22:50.962Z,3.60
2017-11-27T00:25:18.408Z,3.60
2017-11-27T00:27:45.966Z,3.50
2017-11-27T00:30:14.111Z,3.40
2017-11-27T00:32:42.324Z,3.50
2017-11-27T00:35:09.767Z,3.50
2017-11-27T00:37:37.226Z,3.50
2017-11-27T00:40:04.667Z,3.40
2017-11-27T00:42:32.241Z,3.40
2017-11-27T00:44:59.729Z,3.40
2017-11-27T00:47:27.171Z,3.50
2017-11-27T00:49:54.617Z,3.50
2017-11-27T00:52:22.070Z,3.50
2017-11-27T00:54:49.627Z,3.50
2017-11-27T00:57:17.064Z,3.40
2017-11-27T00:59:44.514Z,3.40
2017-11-27T01:02:12.710Z,3.30
2017-11-27T01:04:40.168Z,3.30
2017-11-27T01:07:07.610Z,3.40
2017-11-27T01:09:35.061Z,3.30
2017-11-27T01:12:02.497Z,3.30
2017-11-27T01:14:30.714Z,3.30
2017-11-27T01:16:58.170Z,3.30
2017-11-27T01:19:25.615Z,3.30
2017-11-27T01:21:53.113Z,3.20
2017-11-27T01:24:20.562Z,3.20
2017-11-27T01:26:48.012Z,3.30
2017-11-27T01:29:15.454Z,3.30
2017-11-27T01:31:42.902Z,3.20
2017-11-27T01:34:10.398Z,3.30
2017-11-27T01:36:37.840Z,3.20
2017-11-27T01:39:05.315Z,3.20
2017-11-27T01:41:32.751Z,3.20
2017-11-27T01:44:00.205Z,3.30
2017-11-27T01:46:27.650Z,3.40
2017-11-27T01:48:55.103Z,3.50
2017-11-27T01:51:22.543Z,3.50
2017-11-27T01:53:50.021Z,3.50
2017-11-27T01:56:17.455Z,3.40
2017-11-27T01:58:44.917Z,3.30
2017-11-27T02:01:12.422Z,3.20
2017-11-27T02:03:39.885Z,3.30
2017-11-27T02:06:07.329Z,3.40
2017-11-27T02:08:34.786Z,3.40
2017-11-27T02:11:02.244Z,3.30
2017-11-27T02:13:29.685Z,3.30
2017-11-27T02:15:57.140Z,3.20
2017-11-27T02:18:24.596Z,3.10
2017-11-27T02:20:52.075Z,3.00
2017-11-27T02:23:19.526Z,2.90
2017-11-27T02:25:46.979Z,2.80
2017-11-27T02:28:14.513Z,2.70
2017-11-27T02:30:41.950Z,2.70
2017-11-27T02:33:09.391Z,2.60
2017-11-27T02:35:37.615Z,2.70
2017-11-27T02:38:05.059Z,2.60
2017-11-27T02:40:32.518Z,2.70
2017-11-27T02:42:59.965Z,2.80
2017-11-27T02:45:27.417Z,2.90
2017-11-27T02:47:54.911Z,2.90
2017-11-27T02:50:22.473Z,2.60
2017-11-27T02:52:50.002Z,2.50
2017-11-27T02:55:17.496Z,2.30
2017-11-27T02:57:44.939Z,2.30
2017-11-27T03:00:12.498Z,2.20
2017-11-27T03:02:39.942Z,2.20
2017-11-27T03:05:07.398Z,2.30
2017-11-27T03:07:34.888Z,2.30
2017-11-27T03:10:02.320Z,2.50
2017-11-27T03:12:29.798Z,2.50
2017-11-27T03:14:57.344Z,2.50
2017-11-27T03:17:24.903Z,2.70
2017-11-27T03:19:52.354Z,2.80
2017-11-27T03:22:19.814Z,2.80
2017-11-27T03:24:47.270Z,2.70
2017-11-27T03:27:14.724Z,2.60
2017-11-27T03:29:42.168Z,2.50
2017-11-27T03:32:09.618Z,2.50
2017-11-27T03:34:37.067Z,2.50
2017-11-27T03:37:04.510Z,2.60
2017-11-27T03:39:31.947Z,2.60
2017-11-27T03:42:00.167Z,2.60
2017-11-27T03:44:27.615Z,2.60
2017-11-27T03:46:55.062Z,2.60
2017-11-27T03:49:22.562Z,2.70
2017-11-27T03:51:50.006Z,2.50
2017-11-27T03:54:17.470Z,2.40
2017-11-27T03:56:44.926Z,2.20
2017-11-27T03:59:12.386Z,2.10
2017-11-27T04:01:39.942Z,1.90
2017-11-27T04:04:07.400Z,1.80
2017-11-27T04:06:34.851Z,1.70
2017-11-27T04:09:02.301Z,1.70
2017-11-27T04:11:29.742Z,1.50
2017-11-27T04:13:57.197Z,1.50
2017-11-27T04:16:24.648Z,1.50
2017-11-27T04:18:52.138Z,1.50
2017-11-27T04:21:19.588Z,1.50
2017-11-27T04:23:47.045Z,1.50
2017-11-27T04:26:14.508Z,1.50
2017-11-27T04:28:41.959Z,1.60
2017-11-27T04:31:10.386Z,1.70
2017-11-27T04:33:38.609Z,1.80
2017-11-27T04:36:06.879Z,1.80
2017-11-27T04:38:35.147Z,1.80
2017-11-27T04:41:02.590Z,1.80
2017-11-27T04:43:30.042Z,1.80
2017-11-27T04:45:57.544Z,1.90
2017-11-27T04:48:24.989Z,1.90
2017-11-27T04:50:52.446Z,1.90
2017-11-27T04:53:19.905Z,1.90
2017-11-27T04:55:47.344Z,1.90
2017-11-27T04:58:14.803Z,1.90
2017-11-27T05:00:42.252Z,1.90
2017-11-27T05:03:09.704Z,1.90
2017-11-27T05:05:37.196Z,1.90
2017-11-27T05:08:04.643Z,2.00
2017-11-27T05:10:32.106Z,2.00
2017-11-27T05:12:59.558Z,2.10
2017-11-27T05:15:27.010Z,2.20
2017-11-27T05:17:54.465Z,2.20
2017-11-27T05:20:21.906Z,2.30
2017-11-27T05:22:49.369Z,2.40
2017-11-27T05:25:16.850Z,2.40
2017-11-27T05:27:45.544Z,2.50
2017-11-27T05:30:12.991Z,2.60
2017-11-27T05:32:40.430Z,2.50
2017-11-27T05:35:07.889Z,2.50
2017-11-27T05:37:35.359Z,2.50
2017-11-27T05:40:02.812Z,2.40
2017-11-27T05:42:30.277Z,2.40
2017-11-27T05:44:57.726Z,2.40
2017-11-27T05:47:25.166Z,2.40
2017-11-27T05:49:52.617Z,2.40
2017-11-27T05:52:20.058Z,2.40
2017-11-27T05:54:47.515Z,2.30
2017-11-27T05:57:14.959Z,2.20
2017-11-27T05:59:43.288Z,1.90
2017-11-27T06:02:10.747Z,1.90
2017-11-27T06:04:38.198Z,1.80
2017-11-27T06:07:05.647Z,1.70
2017-11-27T06:09:33.099Z,1.60
2017-11-27T06:12:00.542Z,1.50
2017-11-27T06:14:28.001Z,1.50
2017-11-27T06:16:55.442Z,1.50
2017-11-27T06:19:22.939Z,1.50
2017-11-27T06:21:50.400Z,1.50
2017-11-27T06:24:17.961Z,1.60
2017-11-27T06:26:45.411Z,1.80
2017-11-27T06:29:12.866Z,1.90
2017-11-27T06:31:40.317Z,2.00
2017-11-27T06:34:07.766Z,2.00
2017-11-27T06:36:35.215Z,2.00
2017-11-27T06:39:02.699Z,2.00
2017-11-27T06:41:30.145Z,2.10
2017-11-27T06:43:57.611Z,2.10
2017-11-27T06:46:25.062Z,2.10
2017-11-27T06:48:52.506Z,2.10
2017-11-27T06:51:19.967Z,2.10
2017-11-27T06:53:47.440Z,2.10
2017-11-27T06:56:14.890Z,2.00
2017-11-27T06:58:42.335Z,2.20
2017-11-27T07:01:09.814Z,2.50
2017-11-27T07:03:37.263Z,2.50
2017-11-27T07:06:04.707Z,2.40
2017-11-27T07:08:32.142Z,2.40
2017-11-27T07:10:59.592Z,2.40
2017-11-27T07:13:27.035Z,2.40
2017-11-27T07:15:55.260Z,2.80
2017-11-27T07:18:22.700Z,2.70
2017-11-27T07:20:50.174Z,2.70
2017-11-27T07:23:17.619Z,2.60
2017-11-27T07:25:45.092Z,2.60
2017-11-27T07:28:12.546Z,2.60
2017-11-27T07:30:39.998Z,2.60
2017-11-27T07:33:07.471Z,2.70
2017-11-27T07:35:35.026Z,2.80
2017-11-27T07:38:19.266Z,2.80
2017-11-27T07:40:46.715Z,2.80
2017-11-27T07:43:14.154Z,2.80
2017-11-27T07:45:41.609Z,2.80
2017-11-27T07:48:09.057Z,2.80
2017-11-27T07:50:36.551Z,2.90
2017-11-27T07:53:03.999Z,2.80
2017-11-27T07:55:31.442Z,2.90
2017-11-27T07:57:58.899Z,3.00
2017-11-27T08:00:26.345Z,3.00
2017-11-27T08:02:53.782Z,3.00
2017-11-27T08:05:22.011Z,3.20
2017-11-27T08:07:49.450Z,3.20
2017-11-27T08:10:16.922Z,3.20
2017-11-27T08:12:44.376Z,3.20
2017-11-27T08:15:11.841Z,3.30
2017-11-27T08:17:39.302Z,3.40
2017-11-27T08:20:06.748Z,3.40
2017-11-27T08:22:34.194Z,3.40
2017-11-27T08:25:01.640Z,3.40
2017-11-27T08:27:29.093Z,3.50
2017-11-27T08:29:56.505Z,3.70
2017-11-27T08:32:24.034Z,3.90
2017-11-27T08:34:51.592Z,4.10
2017-11-27T08:37:19.051Z,4.20
2017-11-27T08:39:46.505Z,4.30
2017-11-27T08:42:13.964Z,4.20
2017-11-27T08:44:41.518Z,4.10
2017-11-27T08:47:08.976Z,4.10
2017-11-27T08:49:36.424Z,4.00
2017-11-27T08:52:03.867Z,4.00
2017-11-27T08:54:31.355Z,3.80
2017-11-27T08:56:58.802Z,3.80
2017-11-27T08:59:26.265Z,3.80
2017-11-27T09:01:53.715Z,3.90
2017-11-27T09:04:21.175Z,4.00
2017-11-27T09:06:48.739Z,4.00
2017-11-27T09:09:16.206Z,4.10
2017-11-27T09:11:43.631Z,4.20
2017-11-27T09:14:11.075Z,4.30
2017-11-27T09:16:38.670Z,4.40
2017-11-27T09:19:06.109Z,4.50
2017-11-27T09:21:33.555Z,4.60
2017-11-27T09:24:01.010Z,4.80
2017-11-27T09:26:28.492Z,4.70
2017-11-27T09:28:55.946Z,4.90
2017-11-27T09:31:23.392Z,4.90
2017-11-27T09:33:50.859Z,4.90
2017-11-27T09:36:18.418Z,5.10
2017-11-27T09:38:45.867Z,5.20
2017-11-27T09:41:13.316Z,5.60
2017-11-27T09:43:40.764Z,5.70
2017-11-27T09:46:08.202Z,5.80
2017-11-27T09:48:35.651Z,5.90
2017-11-27T09:51:03.858Z,5.90
2017-11-27T09:53:31.309Z,5.90
2017-11-27T09:55:58.791Z,5.90
2017-11-27T09:58:26.348Z,5.90
2017-11-27T10:00:53.790Z,6.00
2017-11-27T10:03:21.243Z,6.00
2017-11-27T10:05:48.698Z,6.00
2017-11-27T10:08:16.145Z,6.00
2017-11-27T10:10:43.631Z,5.80
2017-11-27T10:13:11.186Z,5.70
2017-11-27T10:15:38.630Z,5.70
2017-11-27T10:18:06.089Z,5.60
2017-11-27T10:20:33.535Z,5.60
2017-11-27T10:23:01.023Z,5.70
2017-11-27T10:25:28.470Z,5.60
2017-11-27T10:27:55.924Z,5.60
2017-11-27T10:30:23.388Z,5.50
2017-11-27T10:32:50.845Z,5.60
2017-11-27T10:35:18.290Z,5.60
2017-11-27T10:37:45.739Z,5.50
2017-11-27T10:40:13.214Z,5.60
2017-11-27T10:42:40.671Z,5.60
2017-11-27T10:45:08.133Z,5.40
2017-11-27T10:47:35.571Z,5.40
2017-11-27T10:50:03.038Z,5.40
2017-11-27T10:52:30.482Z,5.40
2017-11-27T10:54:57.927Z,5.40
2017-11-27T10:57:25.375Z,5.50
2017-11-27T10:59:52.821Z,5.50
2017-11-27T11:02:20.325Z,5.50
2017-11-27T11:04:47.879Z,5.50
2017-11-27T11:07:15.339Z,5.60
2017-11-27T11:09:42.795Z,5.60
2017-11-27T11:12:10.238Z,5.70
2017-11-27T11:14:37.706Z,5.80
2017-11-27T11:17:05.168Z,5.80
2017-11-27T11:19:32.619Z,5.90
2017-11-27T11:22:00.054Z,5.90
2017-11-27T11:24:27.513Z,6.00
2017-11-27T11:26:54.950Z,6.10
2017-11-27T11:29:22.399Z,6.10
2017-11-27T11:31:50.617Z,6.30
2017-11-27T11:34:18.072Z,6.20
2017-11-27T11:36:45.520Z,6.30
2017-11-27T11:39:12.997Z,6.50
2017-11-27T11:41:40.452Z,6.60
2017-11-27T11:44:07.910Z,6.70
2017-11-27T11:46:35.361Z,6.80
2017-11-27T11:49:02.802Z,6.70
2017-11-27T11:51:30.254Z,6.80
2017-11-27T11:53:57.705Z,6.90
2017-11-27T11:56:25.295Z,6.90
2017-11-27T11:58:52.754Z,6.80
2017-11-27T12:01:20.301Z,6.90
2017-11-27T12:03:47.763Z,7.00
2017-11-27T12:06:15.216Z,7.00
2017-11-27T12:08:42.679Z,7.00
2017-11-27T12:11:10.240Z,7.00
2017-11-27T12:13:37.680Z,7.00
2017-11-27T12:16:05.134Z,7.10
2017-11-27T12:18:32.580Z,7.20
2017-11-27T12:21:00.031Z,7.10
2017-11-27T12:23:27.522Z,7.00
2017-11-27T12:25:54.975Z,6.90
2017-11-27T12:28:22.535Z,6.90
2017-11-27T12:30:50.103Z,7.00
2017-11-27T12:33:17.547Z,6.80
2017-11-27T12:35:45.007Z,6.70
2017-11-27T12:38:12.451Z,6.90
2017-11-27T12:40:39.910Z,6.90
2017-11-27T12:43:07.352Z,6.80
2017-11-27T12:45:34.805Z,6.60
2017-11-27T12:48:02.301Z,6.60
2017-11-27T12:50:29.757Z,6.70
2017-11-27T12:52:57.195Z,6.60
2017-11-27T12:55:24.632Z,6.60
2017-11-27T12:57:52.091Z,6.70
2017-11-27T13:00:19.574Z,6.60
2017-11-27T13:02:47.026Z,6.60
2017-11-27T13:05:14.491Z,6.70
2017-11-27T13:07:42.046Z,6.60
2017-11-27T13:10:09.491Z,6.70
2017-11-27T13:12:36.958Z,6.70
2017-11-27T13:15:04.404Z,6.60
2017-11-27T13:17:31.857Z,6.60
2017-11-27T13:19:59.300Z,6.50
2017-11-27T13:22:26.786Z,6.50
2017-11-27T13:24:54.231Z,6.40
2017-11-27T13:27:21.687Z,6.40
2017-11-27T13:29:49.159Z,6.50
2017-11-27T13:32:16.615Z,6.50
2017-11-27T13:34:44.058Z,6.50
2017-11-27T13:37:11.511Z,6.50
2017-11-27T13:39:38.987Z,6.50
2017-11-27T13:42:06.551Z,6.40
2017-11-27T13:44:33.994Z,6.50
2017-11-27T13:47:01.455Z,6.40
2017-11-27T13:49:28.902Z,6.40
2017-11-27T13:51:56.369Z,6.40
2017-11-27T13:54:23.826Z,6.50
2017-11-27T13:56:51.278Z,6.40
2017-11-27T13:59:18.728Z,6.40
2017-11-27T14:01:46.178Z,6.40
2017-11-27T14:04:13.654Z,6.30
2017-11-27T14:06:41.126Z,6.30
2017-11-27T14:09:08.578Z,6.40
2017-11-27T14:11:36.129Z,6.30
2017-11-27T14:14:03.575Z,6.30
2017-11-27T14:16:31.014Z,6.40
2017-11-27T14:18:58.497Z,6.40
2017-11-27T14:21:25.954Z,6.50
2017-11-27T14:23:53.413Z,6.40
2017-11-27T14:26:20.851Z,6.40
2017-11-27T14:28:48.312Z,6.30
2017-11-27T14:31:15.778Z,6.30
2017-11-27T14:33:43.343Z,6.20
2017-11-27T14:36:10.799Z,6.20
2017-11-27T14:38:38.246Z,6.10
2017-11-27T14:41:05.691Z,6.10
2017-11-27T14:43:33.158Z,6.10
2017-11-27T14:46:00.619Z,6.00
2017-11-27T14:48:28.076Z,6.00
2017-11-27T14:50:55.518Z,6.00
2017-11-27T14:53:22.966Z,6.00
2017-11-27T14:55:50.444Z,6.00
2017-11-27T14:58:17.904Z,6.00
2017-11-27T15:00:45.364Z,5.90
2017-11-27T15:03:12.820Z,5.90
2017-11-27T15:05:40.377Z,5.90
2017-11-27T15:08:07.949Z,5.90
2017-11-27T15:10:35.388Z,5.90
2017-11-27T15:13:02.950Z,5.80
2017-11-27T15:15:30.401Z,5.80
2017-11-27T15:17:57.853Z,5.80
2017-11-27T15:20:25.337Z,5.80
2017-11-27T15:22:52.770Z,5.80
2017-11-27T15:25:20.339Z,5.70
2017-11-27T15:27:47.784Z,5.80
2017-11-27T15:30:15.235Z,5.70
2017-11-27T15:32:42.678Z,5.70
2017-11-27T15:35:10.134Z,5.70
2017-11-27T15:37:37.580Z,5.70
2017-11-27T15:40:05.083Z,5.60
2017-11-27T15:42:32.634Z,5.60
2017-11-27T15:45:00.095Z,5.60
2017-11-27T15:47:27.559Z,5.60
2017-11-27T15:49:55.008Z,5.60
2017-11-27T15:52:22.446Z,5.60
2017-11-27T15:54:49.899Z,5.60
2017-11-27T15:57:17.347Z,5.60
2017-11-27T15:59:44.807Z,5.60
2017-11-27T16:02:12.297Z,5.50
2017-11-27T16:04:39.747Z,5.50
2017-11-27T16:07:07.191Z,5.50
2017-11-27T16:09:34.642Z,5.60
2017-11-27T16:12:02.088Z,5.60
2017-11-27T16:14:29.549Z,5.60
2017-11-27T16:16:56.997Z,5.50
2017-11-27T16:19:24.453Z,5.60
2017-11-27T16:21:51.952Z,5.50
2017-11-27T16:24:19.418Z,5.60
2017-11-27T16:26:46.859Z,5.60
2017-11-27T16:29:14.322Z,5.50
2017-11-27T16:31:41.879Z,5.60
2017-11-27T16:34:09.321Z,5.60
2017-11-27T16:36:36.791Z,5.60
2017-11-27T16:39:04.222Z,5.60
2017-11-27T16:41:31.675Z,5.60
2017-11-27T16:43:59.122Z,5.50
2017-11-27T16:46:26.612Z,5.50
2017-11-27T16:48:54.078Z,5.60
2017-11-27T16:51:21.534Z,5.50
2017-11-27T16:53:49.102Z,5.50
2017-11-27T16:56:16.552Z,5.50
2017-11-27T16:58:44.002Z,5.60
2017-11-27T17:01:11.455Z,5.60
2017-11-27T17:03:38.903Z,5.60
2017-11-27T17:06:06.354Z,5.50
2017-11-27T17:08:33.827Z,5.60
2017-11-27T17:11:01.388Z,5.60
2017-11-27T17:13:28.834Z,5.50
2017-11-27T17:15:56.399Z,5.60
2017-11-27T17:18:23.959Z,5.60
2017-11-27T17:20:51.414Z,5.60
2017-11-27T17:23:18.970Z,5.60
2017-11-27T17:25:46.428Z,5.60
2017-11-27T17:28:21.873Z,5.60
2017-11-27T17:30:49.331Z,5.60
2017-11-27T17:33:16.777Z,5.60
2017-11-27T17:35:44.231Z,5.60
2017-11-27T17:38:11.680Z,5.70
2017-11-27T17:40:39.130Z,5.70
2017-11-27T17:43:06.581Z,5.60
2017-11-27T17:45:34.034Z,5.60
2017-11-27T17:48:01.487Z,5.70
2017-11-27T17:50:28.930Z,5.70
2017-11-27T17:52:57.146Z,5.70
2017-11-27T17:55:24.587Z,5.70
2017-11-27T17:57:52.045Z,5.70
2017-11-27T18:00:19.489Z,5.70
2017-11-27T18:02:46.950Z,5.80
2017-11-27T18:05:14.380Z,5.80
2017-11-27T18:07:42.604Z,5.70
2017-11-27T18:10:10.047Z,5.70
2017-11-27T18:12:37.500Z,5.70
2017-11-27T18:15:04.943Z,5.70
2017-11-27T18:17:32.444Z,5.80
2017-11-27T18:19:59.894Z,5.80
2017-11-27T18:22:27.350Z,5.80
2017-11-27T18:24:54.799Z,5.80
2017-11-27T18:27:22.271Z,5.80
2017-11-27T18:29:49.715Z,5.80
2017-11-27T18:32:17.167Z,5.80
2017-11-27T18:34:44.617Z,5.80
2017-11-27T18:37:12.075Z,5.80
2017-11-27T18:39:39.523Z,5.80
2017-11-27T18:42:06.980Z,5.80
2017-11-27T18:44:34.461Z,5.80
2017-11-27T18:47:01.916Z,5.80
2017-11-27T18:49:29.366Z,5.80
2017-11-27T18:51:56.819Z,5.70
2017-11-27T18:54:24.274Z,5.70
2017-11-27T18:56:51.743Z,5.80
2017-11-27T18:59:19.186Z,5.90
2017-11-27T19:01:46.635Z,5.80
2017-11-27T19:04:14.110Z,5.80
2017-11-27T19:06:41.559Z,5.80
2017-11-27T19:09:09.015Z,5.80
2017-11-27T19:11:36.532Z,5.80
2017-11-27T19:14:03.915Z,5.80
2017-11-27T19:16:31.375Z,5.80
2017-11-27T19:18:58.866Z,5.80
2017-11-27T19:21:26.413Z,5.80
2017-11-27T19:23:53.867Z,5.80
2017-11-27T19:26:21.330Z,5.80
2017-11-27T19:28:48.890Z,5.80
2017-11-27T19:31:16.330Z,5.80
2017-11-27T19:33:43.806Z,5.90
2017-11-27T19:36:11.242Z,5.80
2017-11-27T19:38:38.703Z,5.80
2017-11-27T19:41:06.146Z,5.80
2017-11-27T19:43:33.610Z,5.90
2017-11-27T19:46:01.059Z,5.80
2017-11-27T19:48:28.515Z,5.80
2017-11-27T19:50:55.958Z,5.80
2017-11-27T19:53:23.412Z,5.90
2017-11-27T19:55:50.855Z,5.90
2017-11-27T19:58:19.070Z,5.90
2017-11-27T20:00:46.514Z,5.90
2017-11-27T20:03:14.000Z,5.90
2017-11-27T20:05:41.447Z,5.80
2017-11-27T20:08:09.004Z,5.80
2017-11-27T20:10:36.446Z,5.80
2017-11-27T20:13:03.902Z,5.90
2017-11-27T20:15:31.355Z,5.90
2017-11-27T20:17:58.838Z,5.90
2017-11-27T20:20:26.292Z,5.90
2017-11-27T20:22:53.764Z,6.00
2017-11-27T20:25:21.317Z,5.90
2017-11-27T20:27:48.762Z,6.00
2017-11-27T20:30:16.214Z,6.00
2017-11-27T20:32:43.663Z,6.10
2017-11-27T20:35:11.112Z,6.00
2017-11-27T20:37:38.555Z,6.10
2017-11-27T20:40:06.006Z,6.10
2017-11-27T20:42:33.507Z,6.00
2017-11-27T20:45:00.964Z,6.10
2017-11-27T20:47:28.424Z,6.10
2017-11-27T20:49:55.879Z,6.10
2017-11-27T20:52:23.323Z,6.10
2017-11-27T20:54:50.786Z,6.20
2017-11-27T20:57:18.251Z,6.10
2017-11-27T20:59:45.705Z,6.10
2017-11-27T21:02:13.149Z,6.20
2017-11-27T21:04:40.628Z,6.20
2017-11-27T21:07:08.067Z,6.20
2017-11-27T21:09:35.520Z,6.20
2017-11-27T21:12:02.964Z,6.10
2017-11-27T21:14:30.421Z,6.20
2017-11-27T21:16:57.907Z,6.20
2017-11-27T21:19:25.371Z,6.20
2017-11-27T21:21:52.810Z,6.20
2017-11-27T21:24:20.266Z,6.20
2017-11-27T21:26:47.709Z,6.20
2017-11-27T21:29:15.187Z,6.20
2017-11-27T21:31:42.632Z,6.40
2017-11-27T21:34:10.076Z,6.30
2017-11-27T21:36:37.558Z,6.30
2017-11-27T21:39:05.008Z,6.30
2017-11-27T21:41:32.463Z,6.30
2017-11-27T21:43:59.921Z,6.30
2017-11-27T21:46:27.375Z,6.20
2017-11-27T21:48:54.839Z,6.20
2017-11-27T21:51:22.302Z,6.30
2017-11-27T21:53:49.762Z,6.40
2017-11-27T21:56:17.220Z,6.30
2017-11-27T21:58:44.655Z,6.40
2017-11-27T22:02:37.066Z,6.30
2017-11-27T22:05:05.390Z,6.30
2017-11-27T22:07:32.835Z,6.40
2017-11-27T22:10:00.286Z,6.30
2017-11-27T22:12:27.745Z,6.30
2017-11-27T22:14:55.188Z,6.30
2017-11-27T22:17:22.676Z,6.30
2017-11-27T22:19:50.120Z,6.30
2017-11-27T22:22:17.597Z,6.20
2017-11-27T22:24:45.350Z,6.10
2017-11-27T22:27:12.812Z,6.20
2017-11-27T22:29:40.367Z,6.20
2017-11-27T22:32:07.823Z,6.10
2017-11-27T22:34:35.268Z,6.00
2017-11-27T22:37:02.813Z,6.00
2017-11-27T22:39:30.246Z,6.10
2017-11-27T22:41:57.696Z,6.00
2017-11-27T22:44:25.903Z,5.90
2017-11-27T22:46:53.359Z,5.90
2017-11-27T22:49:20.914Z,5.90
2017-11-27T22:51:48.355Z,5.90
2017-11-27T22:54:15.800Z,5.90
2017-11-27T22:56:44.021Z,5.90
2017-11-27T22:59:11.470Z,5.80
2017-11-27T23:01:39.019Z,5.90
2017-11-27T23:04:06.454Z,5.90
2017-11-27T23:06:33.907Z,5.90
2017-11-27T23:09:01.386Z,5.90
2017-11-27T23:11:28.872Z,5.90
2017-11-27T23:13:56.432Z,5.90
2017-11-27T23:16:23.906Z,5.90
2017-11-27T23:18:51.351Z,5.90
2017-11-27T23:21:18.797Z,5.80
2017-11-27T23:23:46.358Z,5.80
2017-11-27T23:26:13.803Z,5.90
2017-11-27T23:28:41.346Z,5.80
2017-11-27T23:31:08.780Z,5.80
2017-11-27T23:33:36.229Z,5.80
2017-11-27T23:36:04.435Z,5.80
2017-11-27T23:38:31.885Z,5.70
2017-11-27T23:40:59.331Z,5.80
2017-11-27T23:43:26.833Z,5.80
2017-11-27T23:45:54.274Z,5.80
2017-11-27T23:48:21.723Z,5.80
2017-11-27T23:50:49.171Z,5.70
2017-11-27T23:53:16.628Z,5.70
2017-11-27T23:55:44.074Z,5.70
2017-11-27T23:58:11.523Z,5.70
